Terminal Aerodrome Forecast
Issued by NWS

Home | Current Version | Previous Version | Text Only | Print | Product List | Glossary On
Versions: 1 2 3 4 5 6 7 8 9 10 11 12 13 14 15 16 17 18 19 20 21 22 23 24 25 26 27 28 29 30 31 32 33 34
000
FTUS45 KCYS 252001 AAC
TAFRWL
TAF AMD
KRWL 252001Z 2520/2618 35011G25KT 6SM -SHSN OVC025
      TEMPO 2520/2524 2SM -SN OVC012
     FM260000 35015KT 4SM -SN OVC015
     FM260500 33011KT P6SM OVC010
     FM261200 24012KT P6SM OVC007=

USA.gov is the U.S. government's official web portal to all federal, state and local government web resources and services.